sensor_id;sensor_type;location;lat;lon;timestamp;temperature;humidity
21302;DHT22;10810;48.270;9.996;2023-04-24T00:02:25;10.10;99.90
21302;DHT22;10810;48.270;9.996;2023-04-24T00:04:52;10.00;99.90
21302;DHT22;10810;48.270;9.996;2023-04-24T00:07:19;10.10;99.90
21302;DHT22;10810;48.270;9.996;2023-04-24T00:09:46;10.00;99.90
21302;DHT22;10810;48.270;9.996;2023-04-24T00:12:13;10.00;99.90
21302;DHT22;10810;48.270;9.996;2023-04-24T00:14:42;10.10;99.90
21302;DHT22;10810;48.270;9.996;2023-04-24T00:17:10;10.10;99.90
21302;DHT22;10810;48.270;9.996;2023-04-24T00:19:37;10.10;99.90
21302;DHT22;10810;48.270;9.996;2023-04-24T00:22:04;10.10;99.90
21302;DHT22;10810;48.270;9.996;2023-04-24T00:24:31;10.10;99.90
21302;DHT22;10810;48.270;9.996;2023-04-24T00:26:58;10.10;99.90
21302;DHT22;10810;48.270;9.996;2023-04-24T00:29:26;10.10;99.90
21302;DHT22;10810;48.270;9.996;2023-04-24T00:31:54;10.10;99.90
21302;DHT22;10810;48.270;9.996;2023-04-24T00:34:22;10.10;99.90
21302;DHT22;10810;48.270;9.996;2023-04-24T00:36:49;10.10;99.90
21302;DHT22;10810;48.270;9.996;2023-04-24T00:39:17;10.00;99.90
21302;DHT22;10810;48.270;9.996;2023-04-24T00:41:45;10.00;99.90
21302;DHT22;10810;48.270;9.996;2023-04-24T00:44:12;10.10;99.90
21302;DHT22;10810;48.270;9.996;2023-04-24T00:46:40;10.10;99.90
21302;DHT22;10810;48.270;9.996;2023-04-24T00:49:07;10.10;99.90
21302;DHT22;10810;48.270;9.996;2023-04-24T00:51:36;10.10;99.90
21302;DHT22;10810;48.270;9.996;2023-04-24T00:54:03;10.10;99.90
21302;DHT22;10810;48.270;9.996;2023-04-24T00:56:30;10.10;99.90
21302;DHT22;10810;48.270;9.996;2023-04-24T00:58:58;10.10;99.90
21302;DHT22;10810;48.270;9.996;2023-04-24T01:01:25;10.00;99.90
21302;DHT22;10810;48.270;9.996;2023-04-24T01:03:53;10.00;99.90
21302;DHT22;10810;48.270;9.996;2023-04-24T01:06:20;10.00;99.90
21302;DHT22;10810;48.270;9.996;2023-04-24T01:08:49;10.00;99.90
21302;DHT22;10810;48.270;9.996;2023-04-24T01:11:18;10.00;99.90
21302;DHT22;10810;48.270;9.996;2023-04-24T01:13:46;9.90;99.90
21302;DHT22;10810;48.270;9.996;2023-04-24T01:16:14;9.90;99.90
21302;DHT22;10810;48.270;9.996;2023-04-24T01:18:43;9.90;99.90
21302;DHT22;10810;48.270;9.996;2023-04-24T01:21:13;9.80;99.90
21302;DHT22;10810;48.270;9.996;2023-04-24T01:23:43;9.90;99.90
21302;DHT22;10810;48.270;9.996;2023-04-24T01:26:10;9.90;99.90
21302;DHT22;10810;48.270;9.996;2023-04-24T01:28:37;10.00;99.90
21302;DHT22;10810;48.270;9.996;2023-04-24T01:31:04;9.90;99.90
21302;DHT22;10810;48.270;9.996;2023-04-24T01:33:33;9.90;99.90
21302;DHT22;10810;48.270;9.996;2023-04-24T01:36:00;9.80;99.90
21302;DHT22;10810;48.270;9.996;2023-04-24T01:38:27;9.90;99.90
21302;DHT22;10810;48.270;9.996;2023-04-24T01:40:59;9.90;99.90
21302;DHT22;10810;48.270;9.996;2023-04-24T01:43:28;9.80;99.90
21302;DHT22;10810;48.270;9.996;2023-04-24T01:45:55;9.80;99.90
21302;DHT22;10810;48.270;9.996;2023-04-24T01:48:23;9.70;99.90
21302;DHT22;10810;48.270;9.996;2023-04-24T01:50:52;9.70;99.90
21302;DHT22;10810;48.270;9.996;2023-04-24T01:53:19;9.70;99.90
21302;DHT22;10810;48.270;9.996;2023-04-24T01:55:48;9.70;99.90
21302;DHT22;10810;48.270;9.996;2023-04-24T01:58:18;9.70;99.90
21302;DHT22;10810;48.270;9.996;2023-04-24T02:00:47;9.60;99.90
21302;DHT22;10810;48.270;9.996;2023-04-24T02:03:14;9.70;99.90
21302;DHT22;10810;48.270;9.996;2023-04-24T02:05:43;9.70;99.90
21302;DHT22;10810;48.270;9.996;2023-04-24T02:08:11;9.60;99.90
21302;DHT22;10810;48.270;9.996;2023-04-24T02:10:38;9.70;99.90
21302;DHT22;10810;48.270;9.996;2023-04-24T02:13:10;9.70;99.90
21302;DHT22;10810;48.270;9.996;2023-04-24T02:15:43;9.70;99.90
21302;DHT22;10810;48.270;9.996;2023-04-24T02:18:10;9.70;99.90
21302;DHT22;10810;48.270;9.996;2023-04-24T02:20:38;9.70;99.90
21302;DHT22;10810;48.270;9.996;2023-04-24T02:23:05;9.70;99.90
21302;DHT22;10810;48.270;9.996;2023-04-24T02:25:33;9.70;99.90
21302;DHT22;10810;48.270;9.996;2023-04-24T02:28:00;9.70;99.90
21302;DHT22;10810;48.270;9.996;2023-04-24T02:30:27;9.60;99.90
21302;DHT22;10810;48.270;9.996;2023-04-24T02:32:56;9.60;99.90
21302;DHT22;10810;48.270;9.996;2023-04-24T02:35:23;9.60;99.90
21302;DHT22;10810;48.270;9.996;2023-04-24T02:37:50;9.60;99.90
21302;DHT22;10810;48.270;9.996;2023-04-24T02:40:17;9.60;99.90
21302;DHT22;10810;48.270;9.996;2023-04-24T02:42:44;9.60;99.90
21302;DHT22;10810;48.270;9.996;2023-04-24T02:45:13;9.60;99.90
21302;DHT22;10810;48.270;9.996;2023-04-24T02:47:40;9.60;99.90
21302;DHT22;10810;48.270;9.996;2023-04-24T02:50:09;9.60;99.90
21302;DHT22;10810;48.270;9.996;2023-04-24T02:52:36;9.50;99.90
21302;DHT22;10810;48.270;9.996;2023-04-24T02:55:03;9.50;99.90
21302;DHT22;10810;48.270;9.996;2023-04-24T02:57:30;9.50;99.90
21302;DHT22;10810;48.270;9.996;2023-04-24T02:59:57;9.50;99.90
21302;DHT22;10810;48.270;9.996;2023-04-24T03:02:24;9.50;99.90
21302;DHT22;10810;48.270;9.996;2023-04-24T03:04:51;9.50;99.90
21302;DHT22;10810;48.270;9.996;2023-04-24T03:07:20;9.50;99.90
21302;DHT22;10810;48.270;9.996;2023-04-24T03:09:47;9.50;99.90
21302;DHT22;10810;48.270;9.996;2023-04-24T03:12:14;9.40;99.90
21302;DHT22;10810;48.270;9.996;2023-04-24T03:14:43;9.50;99.90
21302;DHT22;10810;48.270;9.996;2023-04-24T03:17:11;9.40;99.90
21302;DHT22;10810;48.270;9.996;2023-04-24T03:19:40;9.40;99.90
21302;DHT22;10810;48.270;9.996;2023-04-24T03:22:07;9.40;99.90
21302;DHT22;10810;48.270;9.996;2023-04-24T03:24:36;9.40;99.90
21302;DHT22;10810;48.270;9.996;2023-04-24T03:27:03;9.50;99.90
21302;DHT22;10810;48.270;9.996;2023-04-24T03:29:30;9.50;99.90
21302;DHT22;10810;48.270;9.996;2023-04-24T03:31:57;9.50;99.90
21302;DHT22;10810;48.270;9.996;2023-04-24T03:34:27;9.50;99.90
21302;DHT22;10810;48.270;9.996;2023-04-24T03:36:54;9.50;99.90
21302;DHT22;10810;48.270;9.996;2023-04-24T03:39:20;9.50;99.90
21302;DHT22;10810;48.270;9.996;2023-04-24T03:41:49;9.50;99.90
21302;DHT22;10810;48.270;9.996;2023-04-24T03:44:16;9.50;99.90
21302;DHT22;10810;48.270;9.996;2023-04-24T03:46:43;9.50;99.90
21302;DHT22;10810;48.270;9.996;2023-04-24T03:49:10;9.50;99.90
21302;DHT22;10810;48.270;9.996;2023-04-24T03:51:37;9.50;99.90
21302;DHT22;10810;48.270;9.996;2023-04-24T03:54:04;9.50;99.90
21302;DHT22;10810;48.270;9.996;2023-04-24T03:56:31;9.50;99.90
21302;DHT22;10810;48.270;9.996;2023-04-24T03:59:02;9.50;99.90
21302;DHT22;10810;48.270;9.996;2023-04-24T04:01:42;9.50;99.90
21302;DHT22;10810;48.270;9.996;2023-04-24T04:04:11;9.50;99.90
21302;DHT22;10810;48.270;9.996;2023-04-24T04:06:40;9.50;99.90
21302;DHT22;10810;48.270;9.996;2023-04-24T04:09:08;9.50;99.90
21302;DHT22;10810;48.270;9.996;2023-04-24T04:11:35;9.50;99.90
21302;DHT22;10810;48.270;9.996;2023-04-24T04:14:03;9.50;99.90
21302;DHT22;10810;48.270;9.996;2023-04-24T04:16:30;9.50;99.90
21302;DHT22;10810;48.270;9.996;2023-04-24T04:18:57;9.50;99.90
21302;DHT22;10810;48.270;9.996;2023-04-24T04:21:24;9.50;99.90
21302;DHT22;10810;48.270;9.996;2023-04-24T04:23:52;9.50;99.90
21302;DHT22;10810;48.270;9.996;2023-04-24T04:26:19;9.50;99.90
21302;DHT22;10810;48.270;9.996;2023-04-24T04:28:49;9.40;99.90
21302;DHT22;10810;48.270;9.996;2023-04-24T04:31:17;9.40;99.90
21302;DHT22;10810;48.270;9.996;2023-04-24T04:33:45;9.40;99.90
21302;DHT22;10810;48.270;9.996;2023-04-24T04:36:14;9.40;99.90
21302;DHT22;10810;48.270;9.996;2023-04-24T04:38:42;9.40;99.90
21302;DHT22;10810;48.270;9.996;2023-04-24T04:41:10;9.40;99.90
21302;DHT22;10810;48.270;9.996;2023-04-24T04:43:37;9.40;99.90
21302;DHT22;10810;48.270;9.996;2023-04-24T04:46:06;9.40;99.90
21302;DHT22;10810;48.270;9.996;2023-04-24T04:48:35;9.40;99.90
21302;DHT22;10810;48.270;9.996;2023-04-24T04:51:03;9.40;99.90
21302;DHT22;10810;48.270;9.996;2023-04-24T04:53:30;9.40;99.90
21302;DHT22;10810;48.270;9.996;2023-04-24T04:55:57;9.40;99.90
21302;DHT22;10810;48.270;9.996;2023-04-24T04:58:25;9.40;99.90
21302;DHT22;10810;48.270;9.996;2023-04-24T05:00:52;9.40;99.90
21302;DHT22;10810;48.270;9.996;2023-04-24T05:03:19;9.40;99.90
21302;DHT22;10810;48.270;9.996;2023-04-24T05:05:47;9.40;99.90
21302;DHT22;10810;48.270;9.996;2023-04-24T05:08:14;9.40;99.90
21302;DHT22;10810;48.270;9.996;2023-04-24T05:10:41;9.40;99.90
21302;DHT22;10810;48.270;9.996;2023-04-24T05:13:08;9.30;99.90
21302;DHT22;10810;48.270;9.996;2023-04-24T05:15:35;9.40;99.90
21302;DHT22;10810;48.270;9.996;2023-04-24T05:18:02;9.40;99.90
21302;DHT22;10810;48.270;9.996;2023-04-24T05:20:29;9.40;99.90
21302;DHT22;10810;48.270;9.996;2023-04-24T05:22:58;9.40;99.90
21302;DHT22;10810;48.270;9.996;2023-04-24T05:25:25;9.40;99.90
21302;DHT22;10810;48.270;9.996;2023-04-24T05:27:52;9.40;99.90
21302;DHT22;10810;48.270;9.996;2023-04-24T05:30:22;9.40;99.90
21302;DHT22;10810;48.270;9.996;2023-04-24T05:32:49;9.40;99.90
21302;DHT22;10810;48.270;9.996;2023-04-24T05:35:16;9.40;99.90
21302;DHT22;10810;48.270;9.996;2023-04-24T05:37:44;9.40;99.90
21302;DHT22;10810;48.270;9.996;2023-04-24T05:40:12;9.50;99.90
21302;DHT22;10810;48.270;9.996;2023-04-24T05:42:39;9.50;99.90
21302;DHT22;10810;48.270;9.996;2023-04-24T05:45:07;9.50;99.90
21302;DHT22;10810;48.270;9.996;2023-04-24T05:47:34;9.50;99.90
21302;DHT22;10810;48.270;9.996;2023-04-24T05:50:02;9.50;99.90
21302;DHT22;10810;48.270;9.996;2023-04-24T05:52:29;9.60;99.90
21302;DHT22;10810;48.270;9.996;2023-04-24T05:54:56;9.60;99.90
21302;DHT22;10810;48.270;9.996;2023-04-24T05:57:25;9.60;99.90
21302;DHT22;10810;48.270;9.996;2023-04-24T05:59:52;9.60;99.90
21302;DHT22;10810;48.270;9.996;2023-04-24T06:02:19;9.70;99.90
21302;DHT22;10810;48.270;9.996;2023-04-24T06:04:45;9.70;99.90
21302;DHT22;10810;48.270;9.996;2023-04-24T06:07:13;9.80;99.90
21302;DHT22;10810;48.270;9.996;2023-04-24T06:09:40;9.80;99.90
21302;DHT22;10810;48.270;9.996;2023-04-24T06:12:07;9.90;99.90
21302;DHT22;10810;48.270;9.996;2023-04-24T06:14:35;9.90;99.90
21302;DHT22;10810;48.270;9.996;2023-04-24T06:17:02;9.90;99.90
21302;DHT22;10810;48.270;9.996;2023-04-24T06:19:29;9.90;99.90
21302;DHT22;10810;48.270;9.996;2023-04-24T06:21:56;9.90;99.90
21302;DHT22;10810;48.270;9.996;2023-04-24T06:24:27;9.80;99.90
21302;DHT22;10810;48.270;9.996;2023-04-24T06:26:54;9.70;99.90
21302;DHT22;10810;48.270;9.996;2023-04-24T06:29:22;9.50;99.90
21302;DHT22;10810;48.270;9.996;2023-04-24T06:31:51;9.40;99.90
21302;DHT22;10810;48.270;9.996;2023-04-24T06:34:18;9.20;99.90
21302;DHT22;10810;48.270;9.996;2023-04-24T06:36:46;9.10;99.90
21302;DHT22;10810;48.270;9.996;2023-04-24T06:39:13;9.10;99.90
21302;DHT22;10810;48.270;9.996;2023-04-24T06:41:40;9.00;99.90
21302;DHT22;10810;48.270;9.996;2023-04-24T06:44:07;9.00;99.90
21302;DHT22;10810;48.270;9.996;2023-04-24T06:46:34;9.00;99.90
21302;DHT22;10810;48.270;9.996;2023-04-24T06:49:03;9.00;99.90
21302;DHT22;10810;48.270;9.996;2023-04-24T06:51:30;9.00;99.90
21302;DHT22;10810;48.270;9.996;2023-04-24T06:53:58;9.00;99.90
21302;DHT22;10810;48.270;9.996;2023-04-24T06:56:26;8.90;99.90
21302;DHT22;10810;48.270;9.996;2023-04-24T06:58:54;8.90;99.90
21302;DHT22;10810;48.270;9.996;2023-04-24T07:01:21;8.90;99.90
21302;DHT22;10810;48.270;9.996;2023-04-24T07:03:48;8.90;99.90
21302;DHT22;10810;48.270;9.996;2023-04-24T07:06:16;9.00;99.90
21302;DHT22;10810;48.270;9.996;2023-04-24T07:08:47;9.00;99.90
21302;DHT22;10810;48.270;9.996;2023-04-24T07:11:14;8.90;99.90
21302;DHT22;10810;48.270;9.996;2023-04-24T07:13:41;8.90;99.90
21302;DHT22;10810;48.270;9.996;2023-04-24T07:16:09;9.00;99.90
21302;DHT22;10810;48.270;9.996;2023-04-24T07:18:36;9.20;99.90
21302;DHT22;10810;48.270;9.996;2023-04-24T07:21:04;9.40;99.90
21302;DHT22;10810;48.270;9.996;2023-04-24T07:23:33;9.40;99.90
21302;DHT22;10810;48.270;9.996;2023-04-24T07:26:00;9.40;99.90
21302;DHT22;10810;48.270;9.996;2023-04-24T07:28:30;9.50;99.90
21302;DHT22;10810;48.270;9.996;2023-04-24T07:30:57;9.70;99.90
21302;DHT22;10810;48.270;9.996;2023-04-24T07:33:25;9.90;99.90
21302;DHT22;10810;48.270;9.996;2023-04-24T07:35:52;9.90;99.90
21302;DHT22;10810;48.270;9.996;2023-04-24T07:38:19;9.90;99.90
21302;DHT22;10810;48.270;9.996;2023-04-24T07:40:49;9.90;99.90
21302;DHT22;10810;48.270;9.996;2023-04-24T07:43:16;9.90;99.90
21302;DHT22;10810;48.270;9.996;2023-04-24T07:45:43;9.80;99.90
21302;DHT22;10810;48.270;9.996;2023-04-24T07:48:10;9.80;99.90
21302;DHT22;10810;48.270;9.996;2023-04-24T07:50:39;9.80;99.90
21302;DHT22;10810;48.270;9.996;2023-04-24T07:53:06;9.80;99.90
21302;DHT22;10810;48.270;9.996;2023-04-24T07:55:33;10.00;99.90
21302;DHT22;10810;48.270;9.996;2023-04-24T07:58:01;10.00;99.90
21302;DHT22;10810;48.270;9.996;2023-04-24T08:00:28;10.30;99.90
21302;DHT22;10810;48.270;9.996;2023-04-24T08:02:59;10.60;99.90
21302;DHT22;10810;48.270;9.996;2023-04-24T08:05:27;10.80;99.90
21302;DHT22;10810;48.270;9.996;2023-04-24T08:07:54;10.90;99.90
21302;DHT22;10810;48.270;9.996;2023-04-24T08:10:22;11.00;99.90
21302;DHT22;10810;48.270;9.996;2023-04-24T08:12:51;11.10;99.90
21302;DHT22;10810;48.270;9.996;2023-04-24T08:15:20;11.20;99.90
21302;DHT22;10810;48.270;9.996;2023-04-24T08:17:47;11.50;99.90
21302;DHT22;10810;48.270;9.996;2023-04-24T08:20:14;11.60;99.90
21302;DHT22;10810;48.270;9.996;2023-04-24T08:22:41;11.80;99.90
21302;DHT22;10810;48.270;9.996;2023-04-24T08:25:08;12.00;99.90
21302;DHT22;10810;48.270;9.996;2023-04-24T08:27:36;12.00;99.90
21302;DHT22;10810;48.270;9.996;2023-04-24T08:30:05;12.10;99.90
21302;DHT22;10810;48.270;9.996;2023-04-24T08:32:33;12.20;99.90
21302;DHT22;10810;48.270;9.996;2023-04-24T08:35:00;12.30;99.90
21302;DHT22;10810;48.270;9.996;2023-04-24T08:37:29;12.40;99.90
21302;DHT22;10810;48.270;9.996;2023-04-24T08:43:07;12.40;99.90
21302;DHT22;10810;48.270;9.996;2023-04-24T08:45:38;11.80;99.90
21302;DHT22;10810;48.270;9.996;2023-04-24T08:48:23;12.40;99.90
21302;DHT22;10810;48.270;9.996;2023-04-24T08:57:20;12.30;99.90
21302;DHT22;10810;48.270;9.996;2023-04-24T09:03:13;12.30;99.90
21302;DHT22;10810;48.270;9.996;2023-04-24T09:05:48;12.10;99.90
21302;DHT22;10810;48.270;9.996;2023-04-24T09:08:17;11.40;99.90
21302;DHT22;10810;48.270;9.996;2023-04-24T09:10:46;10.60;99.90
21302;DHT22;10810;48.270;9.996;2023-04-24T09:13:26;10.10;99.90
21302;DHT22;10810;48.270;9.996;2023-04-24T09:16:15;10.00;99.90
21302;DHT22;10810;48.270;9.996;2023-04-24T09:18:57;9.70;99.90
21302;DHT22;10810;48.270;9.996;2023-04-24T09:21:59;9.60;99.90
21302;DHT22;10810;48.270;9.996;2023-04-24T09:24:53;9.50;99.90
21302;DHT22;10810;48.270;9.996;2023-04-24T09:31:05;9.70;99.90
21302;DHT22;10810;48.270;9.996;2023-04-24T09:33:57;9.90;99.90
21302;DHT22;10810;48.270;9.996;2023-04-24T09:36:32;10.10;99.90
21302;DHT22;10810;48.270;9.996;2023-04-24T09:39:23;10.20;99.90
21302;DHT22;10810;48.270;9.996;2023-04-24T09:44:44;10.50;99.90
21302;DHT22;10810;48.270;9.996;2023-04-24T09:47:17;10.70;99.90
21302;DHT22;10810;48.270;9.996;2023-04-24T09:49:46;10.70;99.90
21302;DHT22;10810;48.270;9.996;2023-04-24T09:53:39;10.90;99.90
21302;DHT22;10810;48.270;9.996;2023-04-24T09:58:54;11.70;99.90
21302;DHT22;10810;48.270;9.996;2023-04-24T10:01:30;11.80;99.90
21302;DHT22;10810;48.270;9.996;2023-04-24T10:03:59;11.70;99.90
21302;DHT22;10810;48.270;9.996;2023-04-24T10:06:32;11.60;99.90
21302;DHT22;10810;48.270;9.996;2023-04-24T10:08:59;11.40;99.90
21302;DHT22;10810;48.270;9.996;2023-04-24T10:11:34;11.30;99.90
21302;DHT22;10810;48.270;9.996;2023-04-24T10:14:06;11.30;99.90
21302;DHT22;10810;48.270;9.996;2023-04-24T10:16:34;11.30;99.90
21302;DHT22;10810;48.270;9.996;2023-04-24T10:20:43;11.50;99.90
21302;DHT22;10810;48.270;9.996;2023-04-24T10:22:45;11.70;99.90
21302;DHT22;10810;48.270;9.996;2023-04-24T10:25:22;11.90;99.90
21302;DHT22;10810;48.270;9.996;2023-04-24T10:28:08;12.10;99.90
21302;DHT22;10810;48.270;9.996;2023-04-24T10:30:48;12.20;99.90
21302;DHT22;10810;48.270;9.996;2023-04-24T10:33:34;12.40;99.90
21302;DHT22;10810;48.270;9.996;2023-04-24T10:36:03;12.60;99.90
21302;DHT22;10810;48.270;9.996;2023-04-24T10:38:31;12.80;99.90
21302;DHT22;10810;48.270;9.996;2023-04-24T10:41:21;13.00;99.90
21302;DHT22;10810;48.270;9.996;2023-04-24T10:44:11;12.90;99.90
21302;DHT22;10810;48.270;9.996;2023-04-24T10:46:52;12.50;99.90
21302;DHT22;10810;48.270;9.996;2023-04-24T10:49:31;12.20;99.90
21302;DHT22;10810;48.270;9.996;2023-04-24T10:52:28;12.00;99.90
21302;DHT22;10810;48.270;9.996;2023-04-24T10:55:41;11.90;99.90
21302;DHT22;10810;48.270;9.996;2023-04-24T10:58:08;12.10;99.90
21302;DHT22;10810;48.270;9.996;2023-04-24T11:00:56;12.30;99.90
21302;DHT22;10810;48.270;9.996;2023-04-24T11:03:42;12.40;99.90
21302;DHT22;10810;48.270;9.996;2023-04-24T11:06:37;12.40;99.90
21302;DHT22;10810;48.270;9.996;2023-04-24T11:09:05;12.30;99.90
21302;DHT22;10810;48.270;9.996;2023-04-24T11:12:13;12.50;99.90
21302;DHT22;10810;48.270;9.996;2023-04-24T11:15:01;12.50;99.90
21302;DHT22;10810;48.270;9.996;2023-04-24T11:17:48;12.50;99.90
21302;DHT22;10810;48.270;9.996;2023-04-24T11:23:45;12.80;99.90
21302;DHT22;10810;48.270;9.996;2023-04-24T11:26:21;13.00;99.90
21302;DHT22;10810;48.270;9.996;2023-04-24T11:29:17;13.00;99.90
21302;DHT22;10810;48.270;9.996;2023-04-24T11:35:47;13.00;99.90
21302;DHT22;10810;48.270;9.996;2023-04-24T11:38:27;13.40;99.90
21302;DHT22;10810;48.270;9.996;2023-04-24T11:44:20;13.60;98.40
21302;DHT22;10810;48.270;9.996;2023-04-24T11:46:51;12.90;99.90
21302;DHT22;10810;48.270;9.996;2023-04-24T11:49:18;12.20;99.90
21302;DHT22;10810;48.270;9.996;2023-04-24T11:51:45;11.80;99.90
21302;DHT22;10810;48.270;9.996;2023-04-24T11:54:36;11.70;99.90
21302;DHT22;10810;48.270;9.996;2023-04-24T11:57:32;11.60;99.90
21302;DHT22;10810;48.270;9.996;2023-04-24T12:00:33;11.30;99.90
21302;DHT22;10810;48.270;9.996;2023-04-24T12:03:11;11.30;99.90
21302;DHT22;10810;48.270;9.996;2023-04-24T12:05:39;11.30;99.90
21302;DHT22;10810;48.270;9.996;2023-04-24T12:08:29;11.40;99.90
21302;DHT22;10810;48.270;9.996;2023-04-24T12:11:11;11.50;99.90
21302;DHT22;10810;48.270;9.996;2023-04-24T12:13:48;10.90;99.90
21302;DHT22;10810;48.270;9.996;2023-04-24T12:16:46;11.60;99.90
21302;DHT22;10810;48.270;9.996;2023-04-24T12:19:30;11.80;99.90
21302;DHT22;10810;48.270;9.996;2023-04-24T12:22:00;11.90;99.90
21302;DHT22;10810;48.270;9.996;2023-04-24T12:25:00;11.90;99.90
21302;DHT22;10810;48.270;9.996;2023-04-24T12:27:44;12.30;99.90
21302;DHT22;10810;48.270;9.996;2023-04-24T12:30:16;12.50;99.90
21302;DHT22;10810;48.270;9.996;2023-04-24T12:32:47;12.60;99.90
21302;DHT22;10810;48.270;9.996;2023-04-24T12:35:41;12.60;99.90
21302;DHT22;10810;48.270;9.996;2023-04-24T12:39:21;12.50;99.90
21302;DHT22;10810;48.270;9.996;2023-04-24T12:41:56;12.60;99.10
21302;DHT22;10810;48.270;9.996;2023-04-24T12:44:30;12.50;98.70
21302;DHT22;10810;48.270;9.996;2023-04-24T12:47:22;12.40;98.50
21302;DHT22;10810;48.270;9.996;2023-04-24T12:49:53;12.30;97.80
21302;DHT22;10810;48.270;9.996;2023-04-24T12:52:29;12.40;99.90
21302;DHT22;10810;48.270;9.996;2023-04-24T12:55:27;12.50;98.50
21302;DHT22;10810;48.270;9.996;2023-04-24T13:00:10;12.50;98.30
21302;DHT22;10810;48.270;9.996;2023-04-24T13:01:58;12.30;98.40
21302;DHT22;10810;48.270;9.996;2023-04-24T13:11:09;12.00;97.10
21302;DHT22;10810;48.270;9.996;2023-04-24T13:13:36;12.00;95.60
21302;DHT22;10810;48.270;9.996;2023-04-24T13:16:46;11.90;96.80
21302;DHT22;10810;48.270;9.996;2023-04-24T13:19:43;11.40;97.60
21302;DHT22;10810;48.270;9.996;2023-04-24T13:22:13;12.10;98.00
21302;DHT22;10810;48.270;9.996;2023-04-24T13:24:40;12.20;95.60
21302;DHT22;10810;48.270;9.996;2023-04-24T13:27:09;12.30;96.60
21302;DHT22;10810;48.270;9.996;2023-04-24T13:29:36;12.20;96.20
21302;DHT22;10810;48.270;9.996;2023-04-24T13:32:03;12.20;95.00
21302;DHT22;10810;48.270;9.996;2023-04-24T13:34:31;12.20;94.10
21302;DHT22;10810;48.270;9.996;2023-04-24T13:37:05;12.20;93.60
21302;DHT22;10810;48.270;9.996;2023-04-24T13:39:35;12.20;93.60
21302;DHT22;10810;48.270;9.996;2023-04-24T13:48:32;12.60;94.50
21302;DHT22;10810;48.270;9.996;2023-04-24T13:51:20;12.70;94.80
21302;DHT22;10810;48.270;9.996;2023-04-24T13:54:04;12.80;94.20
21302;DHT22;10810;48.270;9.996;2023-04-24T13:59:28;12.70;93.20
21302;DHT22;10810;48.270;9.996;2023-04-24T14:02:35;12.20;91.70
21302;DHT22;10810;48.270;9.996;2023-04-24T14:05:08;12.10;96.10
21302;DHT22;10810;48.270;9.996;2023-04-24T14:08:03;12.30;95.60
21302;DHT22;10810;48.270;9.996;2023-04-24T14:10:48;12.20;93.30
21302;DHT22;10810;48.270;9.996;2023-04-24T14:13:23;12.30;94.80
21302;DHT22;10810;48.270;9.996;2023-04-24T14:15:51;12.40;93.20
21302;DHT22;10810;48.270;9.996;2023-04-24T14:18:18;12.40;92.20
21302;DHT22;10810;48.270;9.996;2023-04-24T14:20:46;12.30;92.40
21302;DHT22;10810;48.270;9.996;2023-04-24T14:23:18;12.30;93.50
21302;DHT22;10810;48.270;9.996;2023-04-24T14:26:04;12.30;93.20
21302;DHT22;10810;48.270;9.996;2023-04-24T14:28:38;12.30;94.80
21302;DHT22;10810;48.270;9.996;2023-04-24T14:31:34;12.30;94.80
21302;DHT22;10810;48.270;9.996;2023-04-24T14:34:37;12.20;95.80
21302;DHT22;10810;48.270;9.996;2023-04-24T14:37:38;12.50;96.80
21302;DHT22;10810;48.270;9.996;2023-04-24T14:40:07;12.60;93.40
21302;DHT22;10810;48.270;9.996;2023-04-24T14:42:35;12.70;92.90
21302;DHT22;10810;48.270;9.996;2023-04-24T14:45:02;12.70;92.20
21302;DHT22;10810;48.270;9.996;2023-04-24T14:47:39;12.70;92.40
21302;DHT22;10810;48.270;9.996;2023-04-24T14:50:30;12.90;94.40
21302;DHT22;10810;48.270;9.996;2023-04-24T14:53:28;12.90;92.90
21302;DHT22;10810;48.270;9.996;2023-04-24T14:56:31;13.00;90.60
21302;DHT22;10810;48.270;9.996;2023-04-24T14:59:11;13.00;90.80
21302;DHT22;10810;48.270;9.996;2023-04-24T15:01:42;12.80;90.50
21302;DHT22;10810;48.270;9.996;2023-04-24T15:04:09;12.90;91.70
21302;DHT22;10810;48.270;9.996;2023-04-24T15:06:46;13.00;90.50
21302;DHT22;10810;48.270;9.996;2023-04-24T15:09:26;13.10;90.20
21302;DHT22;10810;48.270;9.996;2023-04-24T15:11:55;13.10;88.20
21302;DHT22;10810;48.270;9.996;2023-04-24T15:14:30;13.30;90.60
21302;DHT22;10810;48.270;9.996;2023-04-24T15:17:21;13.20;91.90
21302;DHT22;10810;48.270;9.996;2023-04-24T15:19:58;13.30;92.50
21302;DHT22;10810;48.270;9.996;2023-04-24T15:22:35;13.70;89.70
21302;DHT22;10810;48.270;9.996;2023-04-24T15:25:09;13.80;90.60
21302;DHT22;10810;48.270;9.996;2023-04-24T15:28:00;13.90;89.00
21302;DHT22;10810;48.270;9.996;2023-04-24T15:31:12;14.40;89.80
21302;DHT22;10810;48.270;9.996;2023-04-24T15:33:39;14.60;82.50
21302;DHT22;10810;48.270;9.996;2023-04-24T15:37:58;14.70;78.30
21302;DHT22;10810;48.270;9.996;2023-04-24T15:39:26;14.70;81.60
21302;DHT22;10810;48.270;9.996;2023-04-24T15:45:15;14.10;81.20
21302;DHT22;10810;48.270;9.996;2023-04-24T15:50:15;13.60;82.10
21302;DHT22;10810;48.270;9.996;2023-04-24T15:52:45;13.40;85.90
21302;DHT22;10810;48.270;9.996;2023-04-24T15:55:41;13.20;83.90
21302;DHT22;10810;48.270;9.996;2023-04-24T15:58:39;12.40;86.80
21302;DHT22;10810;48.270;9.996;2023-04-24T16:08:01;13.00;82.50
21302;DHT22;10810;48.270;9.996;2023-04-24T16:12:37;11.70;85.90
21302;DHT22;10810;48.270;9.996;2023-04-24T16:17:16;13.70;81.10
21302;DHT22;10810;48.270;9.996;2023-04-24T16:20:16;13.70;82.80
21302;DHT22;10810;48.270;9.996;2023-04-24T16:32:41;13.90;84.80
21302;DHT22;10810;48.270;9.996;2023-04-24T16:36:03;13.70;83.70
21302;DHT22;10810;48.270;9.996;2023-04-24T16:42:32;13.70;82.90
21302;DHT22;10810;48.270;9.996;2023-04-24T17:05:23;13.10;86.20
21302;DHT22;10810;48.270;9.996;2023-04-24T17:11:00;12.90;85.60
21302;DHT22;10810;48.270;9.996;2023-04-24T17:13:36;12.80;90.00
21302;DHT22;10810;48.270;9.996;2023-04-24T17:16:50;13.00;90.10
21302;DHT22;10810;48.270;9.996;2023-04-24T17:20:38;12.60;90.40
21302;DHT22;10810;48.270;9.996;2023-04-24T17:23:28;12.20;90.00
21302;DHT22;10810;48.270;9.996;2023-04-24T17:26:07;12.00;91.10
21302;DHT22;10810;48.270;9.996;2023-04-24T17:32:18;11.90;92.80
21302;DHT22;10810;48.270;9.996;2023-04-24T17:34:45;11.80;93.20
21302;DHT22;10810;48.270;9.996;2023-04-24T17:37:23;11.90;93.00
21302;DHT22;10810;48.270;9.996;2023-04-24T17:47:12;11.40;93.40
21302;DHT22;10810;48.270;9.996;2023-04-24T17:50:04;11.40;95.50
21302;DHT22;10810;48.270;9.996;2023-04-24T17:55:30;11.10;94.50
21302;DHT22;10810;48.270;9.996;2023-04-24T17:59:15;11.10;95.80
21302;DHT22;10810;48.270;9.996;2023-04-24T18:01:57;11.10;97.20
21302;DHT22;10810;48.270;9.996;2023-04-24T18:04:27;10.90;97.10
21302;DHT22;10810;48.270;9.996;2023-04-24T18:09:38;10.80;98.50
21302;DHT22;10810;48.270;9.996;2023-04-24T18:12:08;10.80;99.80
21302;DHT22;10810;48.270;9.996;2023-04-24T18:14:57;10.80;99.80
21302;DHT22;10810;48.270;9.996;2023-04-24T18:17:40;10.70;99.30
21302;DHT22;10810;48.270;9.996;2023-04-24T18:20:50;10.70;99.90
21302;DHT22;10810;48.270;9.996;2023-04-24T18:23:19;10.90;99.90